Time;durP1;ratioP1;P1;durP2;ratioP2;P2;SDS_P1;SDS_P2;PMS_P1;PMS_P2;Temp;Humidity;BMP_temperature;BMP_pressure;BME280_temperature;BME280_humidity;BME280_pressure;Samples;Min_cycle;Max_cycle;Signal;HPM_P1;HPM_P2
2022/03/21 00:04:57;;;;;;;13.13;7.50;;;;;;;;;;10345929;28;20324;-75
2022/03/21 00:09:58;;;;;;;9.80;8.00;;;;;;;;;;10345593;28;20298;-75
2022/03/21 00:14:59;;;;;;;10.82;7.78;;;;;;;;;;10345658;28;20739;-75
2022/03/21 00:20:00;;;;;;;10.57;8.07;;;;;;;;;;10348527;28;20208;-76
2022/03/21 00:25:01;;;;;;;9.52;7.60;;;;;;;;;;10342356;28;20246;-75
2022/03/21 00:30:04;;;;;;;8.02;7.25;;;;;;;;;;10345804;28;20348;-75
2022/03/21 00:35:10;;;;;;;14.05;7.93;;;;;;;;;;10343398;28;20551;-75
2022/03/21 00:40:12;;;;;;;9.85;8.02;;;;;;;;;;10345879;28;20235;-76
2022/03/21 00:45:15;;;;;;;9.02;7.53;;;;;;;;;;10347223;28;20204;-76
2022/03/21 00:50:16;;;;;;;16.20;7.38;;;;;;;;;;10344946;28;20212;-76
2022/03/21 00:55:18;;;;;;;13.35;8.45;;;;;;;;;;10347429;28;20199;-75
2022/03/21 01:00:21;;;;;;;10.75;8.45;;;;;;;;;;10342896;28;20595;-77
2022/03/21 01:05:22;;;;;;;9.10;7.70;;;;;;;;;;10344528;28;20208;-75
2022/03/21 01:10:24;;;;;;;12.35;8.38;;;;;;;;;;10341079;28;20300;-76
2022/03/21 01:15:27;;;;;;;12.55;8.18;;;;;;;;;;10342513;28;20197;-75
2022/03/21 01:20:29;;;;;;;10.73;8.50;;;;;;;;;;10342544;28;20205;-75
2022/03/21 01:25:30;;;;;;;13.90;8.82;;;;;;;;;;10344841;28;20211;-75
2022/03/21 01:30:31;;;;;;;11.15;7.20;;;;;;;;;;10343433;28;20216;-75
2022/03/21 01:35:32;;;;;;;12.05;8.45;;;;;;;;;;10345721;28;20200;-75
2022/03/21 01:40:33;;;;;;;17.45;9.13;;;;;;;;;;10344422;28;20233;-76
2022/03/21 01:45:34;;;;;;;10.93;8.57;;;;;;;;;;10340028;28;20212;-76
2022/03/21 01:50:37;;;;;;;11.48;8.77;;;;;;;;;;10341472;28;20291;-75
2022/03/21 01:55:44;;;;;;;11.35;8.65;;;;;;;;;;10345191;28;20200;-75
2022/03/21 02:00:45;;;;;;;12.85;9.00;;;;;;;;;;10339843;28;20708;-76
2022/03/21 02:05:47;;;;;;;11.90;8.73;;;;;;;;;;10343712;28;20809;-76
2022/03/21 02:10:50;;;;;;;12.48;8.25;;;;;;;;;;10338020;28;20211;-75
2022/03/21 02:15:51;;;;;;;12.73;8.65;;;;;;;;;;10339207;28;20239;-75
2022/03/21 02:20:53;;;;;;;11.23;8.10;;;;;;;;;;10346861;28;20259;-75
2022/03/21 02:25:56;;;;;;;10.93;8.40;;;;;;;;;;10340566;28;20201;-76
2022/03/21 02:30:58;;;;;;;11.88;8.48;;;;;;;;;;10340020;28;20250;-75
2022/03/21 02:36:00;;;;;;;10.60;8.18;;;;;;;;;;10354112;28;20209;-76
2022/03/21 02:41:01;;;;;;;12.30;8.30;;;;;;;;;;10352357;28;20228;-75
2022/03/21 02:46:06;;;;;;;12.13;8.70;;;;;;;;;;10353465;28;20276;-75
2022/03/21 02:51:08;;;;;;;13.05;8.95;;;;;;;;;;10349309;28;20672;-75
2022/03/21 02:56:09;;;;;;;15.70;8.55;;;;;;;;;;10349413;28;20586;-75
2022/03/21 03:01:14;;;;;;;16.23;9.05;;;;;;;;;;10353711;28;20216;-76
2022/03/21 03:06:15;;;;;;;12.98;8.52;;;;;;;;;;10349602;28;20225;-75
2022/03/21 03:11:17;;;;;;;11.40;8.68;;;;;;;;;;10354995;28;20214;-75
2022/03/21 03:16:18;;;;;;;11.20;8.77;;;;;;;;;;10355895;28;20255;-75
2022/03/21 03:21:21;;;;;;;12.98;9.52;;;;;;;;;;10350994;28;20196;-74
2022/03/21 03:26:22;;;;;;;11.48;8.30;;;;;;;;;;10348662;28;20220;-75
2022/03/21 03:31:23;;;;;;;15.65;9.63;;;;;;;;;;10346641;28;20224;-75
2022/03/21 03:36:25;;;;;;;15.07;9.25;;;;;;;;;;10346258;28;20295;-74
2022/03/21 03:41:27;;;;;;;13.05;9.27;;;;;;;;;;10349639;28;20228;-75
2022/03/21 03:46:28;;;;;;;10.82;8.85;;;;;;;;;;10341279;28;20213;-75
2022/03/21 03:51:30;;;;;;;14.32;9.70;;;;;;;;;;10345936;28;20209;-75
2022/03/21 03:56:31;;;;;;;9.40;7.80;;;;;;;;;;10351802;28;20233;-75
2022/03/21 04:01:32;;;;;;;12.80;9.32;;;;;;;;;;10347285;28;20261;-74
2022/03/21 04:06:33;;;;;;;13.43;10.07;;;;;;;;;;10345384;28;20241;-75
2022/03/21 04:11:34;;;;;;;15.20;9.40;;;;;;;;;;10349373;28;20221;-77
2022/03/21 04:16:36;;;;;;;11.95;9.57;;;;;;;;;;10348138;28;20981;-76
2022/03/21 04:21:37;;;;;;;13.45;8.05;;;;;;;;;;10342888;28;20205;-76
2022/03/21 04:26:38;;;;;;;12.68;9.02;;;;;;;;;;10380322;28;20208;-76
2022/03/21 04:31:39;;;;;;;11.65;8.65;;;;;;;;;;10349607;28;20227;-77
2022/03/21 04:36:42;;;;;;;12.10;9.10;;;;;;;;;;10346487;28;20208;-76
2022/03/21 04:41:44;;;;;;;14.20;9.25;;;;;;;;;;10349479;28;20233;-76
2022/03/21 04:46:45;;;;;;;15.57;8.77;;;;;;;;;;10342996;28;20207;-77
2022/03/21 04:51:47;;;;;;;10.45;8.70;;;;;;;;;;10344736;28;20275;-77
2022/03/21 04:56:48;;;;;;;12.30;9.23;;;;;;;;;;10341972;28;20212;-77
2022/03/21 05:01:49;;;;;;;13.05;8.95;;;;;;;;;;10339465;28;20215;-76
2022/03/21 05:06:50;;;;;;;13.63;9.05;;;;;;;;;;10348479;28;20193;-76
2022/03/21 05:11:52;;;;;;;10.35;8.73;;;;;;;;;;10340742;28;20220;-76
2022/03/21 05:16:53;;;;;;;11.13;8.60;;;;;;;;;;10343664;28;20199;-76
2022/03/21 05:21:54;;;;;;;10.82;8.38;;;;;;;;;;10340306;28;20212;-76
2022/03/21 05:32:16;;;;;;;10.50;8.80;;;;;;;;;;10339992;28;20666;-78
2022/03/21 05:37:17;;;;;;;11.27;8.95;;;;;;;;;;10340859;28;20207;-78
2022/03/21 05:42:18;;;;;;;14.07;8.52;;;;;;;;;;10343254;28;20599;-76
2022/03/21 05:47:19;;;;;;;12.10;8.45;;;;;;;;;;10342189;28;20293;-76
2022/03/21 05:52:20;;;;;;;13.95;9.05;;;;;;;;;;10340856;28;20253;-78
2022/03/21 05:57:21;;;;;;;12.80;9.38;;;;;;;;;;10342568;28;20716;-77
2022/03/21 06:02:23;;;;;;;12.02;8.55;;;;;;;;;;10342165;28;20652;-77
2022/03/21 06:07:24;;;;;;;11.18;8.13;;;;;;;;;;10340993;28;20196;-78
2022/03/21 06:12:25;;;;;;;12.70;7.97;;;;;;;;;;10345770;28;20231;-78
2022/03/21 06:17:27;;;;;;;12.75;7.90;;;;;;;;;;10345876;28;20279;-78
2022/03/21 06:22:28;;;;;;;11.50;7.68;;;;;;;;;;10345596;28;20302;-76
2022/03/21 06:27:29;;;;;;;12.32;8.65;;;;;;;;;;10341797;28;20262;-76
2022/03/21 06:32:30;;;;;;;15.57;9.57;;;;;;;;;;10334063;28;20599;-78
2022/03/21 06:37:32;;;;;;;10.35;7.90;;;;;;;;;;10341945;28;20200;-76
2022/03/21 06:42:33;;;;;;;10.88;8.00;;;;;;;;;;10340482;28;20343;-77
2022/03/21 06:47:34;;;;;;;10.88;7.68;;;;;;;;;;10343750;28;20231;-76
2022/03/21 06:52:38;;;;;;;10.20;6.90;;;;;;;;;;10351408;28;20223;-77
2022/03/21 06:57:40;;;;;;;14.48;8.88;;;;;;;;;;10351470;28;20196;-76
2022/03/21 07:02:41;;;;;;;12.25;7.45;;;;;;;;;;10349341;28;20302;-76
2022/03/21 07:07:43;;;;;;;9.85;7.25;;;;;;;;;;10348294;28;20238;-76
2022/03/21 07:12:44;;;;;;;10.75;7.63;;;;;;;;;;10350896;28;20223;-76
2022/03/21 07:17:45;;;;;;;8.60;6.38;;;;;;;;;;10345461;28;20212;-76
2022/03/21 07:22:46;;;;;;;12.18;7.57;;;;;;;;;;10346397;28;20200;-76
2022/03/21 07:27:48;;;;;;;9.55;7.88;;;;;;;;;;10349574;28;20204;-75
2022/03/21 07:32:49;;;;;;;10.48;6.90;;;;;;;;;;10345452;28;20318;-76
2022/03/21 07:37:52;;;;;;;11.48;6.82;;;;;;;;;;10346351;28;20211;-76
2022/03/21 07:42:53;;;;;;;9.88;7.85;;;;;;;;;;10344612;28;20606;-76
2022/03/21 07:47:55;;;;;;;12.57;7.88;;;;;;;;;;10346559;28;20197;-77
2022/03/21 07:52:57;;;;;;;11.10;8.25;;;;;;;;;;10344873;28;20295;-77
2022/03/21 07:57:59;;;;;;;11.02;7.05;;;;;;;;;;10347005;28;20200;-77
2022/03/21 08:03:00;;;;;;;8.90;7.50;;;;;;;;;;10347075;28;20218;-77
2022/03/21 08:08:01;;;;;;;10.07;8.02;;;;;;;;;;10343797;28;20216;-76
2022/03/21 08:13:02;;;;;;;10.85;7.85;;;;;;;;;;10348279;28;21078;-77
2022/03/21 08:18:04;;;;;;;10.65;7.88;;;;;;;;;;10346240;28;20887;-77
2022/03/21 08:23:11;;;;;;;10.85;8.23;;;;;;;;;;10347748;28;20690;-77
2022/03/21 08:28:14;;;;;;;10.93;7.80;;;;;;;;;;10346142;28;20581;-77
2022/03/21 08:33:15;;;;;;;9.40;8.07;;;;;;;;;;10339990;28;20222;-76
2022/03/21 08:38:16;;;;;;;13.35;7.20;;;;;;;;;;10342098;28;20216;-76
2022/03/21 08:43:18;;;;;;;10.77;7.90;;;;;;;;;;10345706;28;20366;-76
2022/03/21 08:49:23;;;;;;;7.38;6.50;;;;;;;;;;10346750;28;20211;-77
2022/03/21 08:53:40;;;;;;;9.52;7.68;;;;;;;;;;10343559;28;20220;-77
2022/03/21 08:58:41;;;;;;;11.20;7.75;;;;;;;;;;10344926;28;20223;-76
2022/03/21 09:03:42;;;;;;;9.07;7.90;;;;;;;;;;10343928;28;20224;-77
2022/03/21 09:08:43;;;;;;;7.55;6.70;;;;;;;;;;10345602;28;20212;-76
2022/03/21 09:13:45;;;;;;;10.50;8.25;;;;;;;;;;10340142;28;20240;-77
2022/03/21 09:18:46;;;;;;;10.32;7.75;;;;;;;;;;10343292;28;20223;-78
2022/03/21 09:23:47;;;;;;;9.85;8.07;;;;;;;;;;10343566;28;20215;-77
2022/03/21 09:28:48;;;;;;;11.38;8.25;;;;;;;;;;10346014;28;20288;-77
2022/03/21 09:33:49;;;;;;;8.88;8.02;;;;;;;;;;10343570;28;20231;-77
2022/03/21 09:38:51;;;;;;;8.45;7.63;;;;;;;;;;10347210;28;20223;-78
2022/03/21 09:43:53;;;;;;;11.50;7.80;;;;;;;;;;10342625;28;20276;-77
2022/03/21 09:48:55;;;;;;;8.98;7.93;;;;;;;;;;10354403;28;20205;-77
2022/03/21 09:53:57;;;;;;;9.38;7.75;;;;;;;;;;10355394;28;20212;-78
2022/03/21 09:59:01;;;;;;;9.35;7.75;;;;;;;;;;10354098;28;20351;-79
2022/03/21 10:04:02;;;;;;;9.18;8.23;;;;;;;;;;10358438;28;20249;-77
2022/03/21 10:09:05;;;;;;;12.80;8.10;;;;;;;;;;10353879;28;20203;-78
2022/03/21 10:14:25;;;;;;;9.80;7.68;;;;;;;;;;10348052;28;20203;-79
2022/03/21 10:19:27;;;;;;;8.80;7.95;;;;;;;;;;10352915;28;20271;-79
2022/03/21 10:24:33;;;;;;;10.23;8.77;;;;;;;;;;10349461;28;20212;-78
2022/03/21 10:29:50;;;;;;;9.43;8.48;;;;;;;;;;10353182;28;20216;-79
2022/03/21 10:34:59;;;;;;;9.88;8.70;;;;;;;;;;10350771;28;20227;-77
2022/03/21 10:40:00;;;;;;;9.82;8.65;;;;;;;;;;10349789;28;20856;-79
2022/03/21 10:45:03;;;;;;;9.32;8.45;;;;;;;;;;10350773;28;20212;-78
2022/03/21 10:50:04;;;;;;;10.77;9.00;;;;;;;;;;10348912;28;20213;-78
2022/03/21 10:55:06;;;;;;;9.32;8.40;;;;;;;;;;10350083;28;20266;-79
2022/03/21 11:00:13;;;;;;;8.73;7.88;;;;;;;;;;10351958;28;20583;-79
2022/03/21 11:05:15;;;;;;;12.32;9.18;;;;;;;;;;10347936;28;20739;-78
2022/03/21 11:10:16;;;;;;;9.98;8.85;;;;;;;;;;10343736;28;20219;-78
2022/03/21 11:15:17;;;;;;;10.23;8.77;;;;;;;;;;10346350;28;20296;-78
2022/03/21 11:20:18;;;;;;;12.93;9.38;;;;;;;;;;10379632;28;20216;-78
2022/03/21 11:25:19;;;;;;;9.45;8.55;;;;;;;;;;10349193;28;20201;-78
2022/03/21 11:30:25;;;;;;;9.85;8.82;;;;;;;;;;10343005;28;20223;-78
2022/03/21 11:35:28;;;;;;;11.25;9.02;;;;;;;;;;10345307;28;20211;-78
2022/03/21 11:40:31;;;;;;;9.50;8.60;;;;;;;;;;10340023;28;20228;-77
2022/03/21 11:45:34;;;;;;;10.18;9.25;;;;;;;;;;10341262;28;20199;-78
2022/03/21 11:50:35;;;;;;;11.15;9.40;;;;;;;;;;10345563;28;20711;-78
2022/03/21 11:55:37;;;;;;;10.32;9.52;;;;;;;;;;10346836;28;20228;-78
2022/03/21 12:00:58;;;;;;;10.10;9.20;;;;;;;;;;10349683;28;20217;-78
2022/03/21 12:06:19;;;;;;;10.38;9.50;;;;;;;;;;10344879;28;20205;-77
2022/03/21 12:11:39;;;;;;;9.63;8.80;;;;;;;;;;10343912;28;20734;-79
2022/03/21 12:16:40;;;;;;;9.57;8.68;;;;;;;;;;10340090;28;20208;-77
2022/03/21 12:21:42;;;;;;;9.68;8.30;;;;;;;;;;10341760;28;20216;-77
2022/03/21 12:26:50;;;;;;;10.15;9.23;;;;;;;;;;10350363;28;20219;-78
2022/03/21 12:32:11;;;;;;;10.43;8.95;;;;;;;;;;10347782;28;20229;-77
2022/03/21 12:37:25;;;;;;;9.57;8.35;;;;;;;;;;10339693;28;20351;-77
2022/03/21 12:42:30;;;;;;;10.35;9.20;;;;;;;;;;10342904;28;20709;-77
2022/03/21 12:47:31;;;;;;;12.27;9.45;;;;;;;;;;10376054;28;20262;-78
2022/03/21 12:52:34;;;;;;;10.70;8.82;;;;;;;;;;10340803;28;20218;-76
2022/03/21 12:57:52;;;;;;;10.18;9.38;;;;;;;;;;10344533;28;20197;-77
2022/03/21 13:02:56;;;;;;;9.45;8.65;;;;;;;;;;10342793;28;20714;-77
2022/03/21 13:13:17;;;;;;;9.25;8.55;;;;;;;;;;10342937;28;20274;-77
2022/03/21 13:18:18;;;;;;;10.05;9.10;;;;;;;;;;10341800;28;20196;-77
2022/03/21 13:23:20;;;;;;;9.18;8.05;;;;;;;;;;10340594;28;20230;-77
2022/03/21 13:28:24;;;;;;;13.98;8.48;;;;;;;;;;10338070;28;20203;-77
2022/03/21 13:33:27;;;;;;;10.68;8.40;;;;;;;;;;10338668;28;20592;-76
2022/03/21 13:38:29;;;;;;;8.35;7.53;;;;;;;;;;10372948;28;20263;-79
2022/03/21 13:43:32;;;;;;;8.93;8.23;;;;;;;;;;10338143;28;20232;-80
2022/03/21 13:48:35;;;;;;;9.88;8.32;;;;;;;;;;10342490;28;20651;-76
2022/03/21 13:53:40;;;;;;;9.20;8.15;;;;;;;;;;10341082;28;20273;-76
2022/03/21 13:58:41;;;;;;;9.68;8.65;;;;;;;;;;10341229;28;20196;-76
2022/03/21 14:03:46;;;;;;;8.93;8.18;;;;;;;;;;10342425;28;20580;-79
2022/03/21 14:08:59;;;;;;;9.75;8.75;;;;;;;;;;10337833;28;20258;-77
2022/03/21 14:14:00;;;;;;;9.80;9.00;;;;;;;;;;10342761;28;20216;-77
2022/03/21 14:19:01;;;;;;;9.07;8.18;;;;;;;;;;10342491;28;20235;-77
2022/03/21 14:24:02;;;;;;;8.70;7.90;;;;;;;;;;10337141;28;20205;-75
2022/03/21 14:29:06;;;;;;;7.85;7.25;;;;;;;;;;10342968;28;20205;-77
2022/03/21 14:34:07;;;;;;;8.82;8.13;;;;;;;;;;10348435;28;20243;-76
2022/03/21 14:39:08;;;;;;;8.45;7.75;;;;;;;;;;10347655;28;20252;-76
2022/03/21 14:44:09;;;;;;;8.57;7.78;;;;;;;;;;10342867;28;20263;-78
2022/03/21 14:49:10;;;;;;;9.43;8.52;;;;;;;;;;10347579;28;20192;-76
2022/03/21 14:54:11;;;;;;;9.82;8.00;;;;;;;;;;10345756;28;20203;-76
2022/03/21 14:59:12;;;;;;;7.20;6.60;;;;;;;;;;10349192;28;20668;-78
2022/03/21 15:04:14;;;;;;;9.57;8.30;;;;;;;;;;10343984;28;20216;-75
2022/03/21 15:09:15;;;;;;;8.43;7.68;;;;;;;;;;10346657;28;20940;-77
2022/03/21 15:14:17;;;;;;;8.25;7.55;;;;;;;;;;10343289;28;20627;-77
2022/03/21 15:19:18;;;;;;;9.13;7.90;;;;;;;;;;10345879;28;20236;-79
2022/03/21 15:24:19;;;;;;;6.93;6.40;;;;;;;;;;10349617;28;20275;-79
2022/03/21 15:29:21;;;;;;;8.65;7.10;;;;;;;;;;10359562;28;20204;-78
2022/03/21 15:34:22;;;;;;;7.78;7.22;;;;;;;;;;10377002;28;20273;-78
2022/03/21 15:44:42;;;;;;;7.18;6.53;;;;;;;;;;10344160;28;20643;-77
2022/03/21 15:49:48;;;;;;;7.75;7.15;;;;;;;;;;10347171;28;20637;-78
2022/03/21 15:54:51;;;;;;;7.78;7.10;;;;;;;;;;10339350;28;20204;-76
2022/03/21 15:59:52;;;;;;;7.88;7.18;;;;;;;;;;10343524;28;20204;-76
2022/03/21 16:04:53;;;;;;;7.97;7.35;;;;;;;;;;10345122;28;20251;-77
2022/03/21 16:09:54;;;;;;;8.50;7.43;;;;;;;;;;10345379;28;20799;-79
2022/03/21 16:14:55;;;;;;;12.23;7.93;;;;;;;;;;10345043;28;20205;-77
2022/03/21 16:19:56;;;;;;;7.45;6.75;;;;;;;;;;10341941;28;20215;-76
2022/03/21 16:24:58;;;;;;;7.97;7.28;;;;;;;;;;10344342;28;20261;-78
2022/03/21 16:29:59;;;;;;;9.00;7.22;;;;;;;;;;10353016;28;20319;-81
2022/03/21 16:35:00;;;;;;;6.75;6.25;;;;;;;;;;10339747;28;20720;-81
2022/03/21 16:40:01;;;;;;;7.63;6.95;;;;;;;;;;10343750;28;20248;-77
2022/03/21 16:45:05;;;;;;;7.93;7.13;;;;;;;;;;10346946;28;20245;-78
2022/03/21 16:50:11;;;;;;;9.20;7.28;;;;;;;;;;10347998;28;20207;-79
2022/03/21 16:55:12;;;;;;;7.60;7.03;;;;;;;;;;10343092;28;20708;-77
2022/03/21 17:00:13;;;;;;;7.30;6.70;;;;;;;;;;10352348;28;20212;-79
2022/03/21 17:05:15;;;;;;;8.85;7.15;;;;;;;;;;10354619;28;20223;-82
2022/03/21 17:10:23;;;;;;;8.40;7.60;;;;;;;;;;10352096;28;20209;-77
2022/03/21 17:15:24;;;;;;;7.18;6.47;;;;;;;;;;10341783;28;20201;-77
2022/03/21 17:25:45;;;;;;;7.63;6.93;;;;;;;;;;10346699;28;20220;-76
2022/03/21 17:30:46;;;;;;;9.68;7.65;;;;;;;;;;10347038;28;20212;-77
2022/03/21 17:35:49;;;;;;;9.30;7.20;;;;;;;;;;10344100;28;20200;-76
2022/03/21 17:40:50;;;;;;;12.18;8.45;;;;;;;;;;10349314;28;20215;-77
2022/03/21 17:45:51;;;;;;;9.15;7.40;;;;;;;;;;10341236;28;20189;-78
2022/03/21 17:50:52;;;;;;;9.35;7.82;;;;;;;;;;10342224;28;20223;-77
2022/03/21 17:55:54;;;;;;;7.97;7.22;;;;;;;;;;10340590;28;20287;-76
2022/03/21 18:00:55;;;;;;;10.30;8.30;;;;;;;;;;10340049;28;20235;-77
2022/03/21 18:05:56;;;;;;;9.18;8.20;;;;;;;;;;10349656;28;20258;-77
2022/03/21 18:10:57;;;;;;;8.95;8.05;;;;;;;;;;10353118;28;20296;-76
2022/03/21 18:15:58;;;;;;;8.93;7.80;;;;;;;;;;10355407;28;20208;-77
2022/03/21 18:20:59;;;;;;;10.18;8.90;;;;;;;;;;10354127;28;20307;-76
2022/03/21 18:26:00;;;;;;;9.85;8.77;;;;;;;;;;10352253;28;20215;-77
2022/03/21 18:31:01;;;;;;;9.75;8.82;;;;;;;;;;10350087;28;20309;-77
2022/03/21 18:36:03;;;;;;;10.73;8.43;;;;;;;;;;10351732;28;20676;-77
2022/03/21 18:41:04;;;;;;;9.40;7.97;;;;;;;;;;10354048;28;20219;-77
2022/03/21 18:46:05;;;;;;;9.02;8.23;;;;;;;;;;10351679;28;20204;-77
2022/03/21 18:51:06;;;;;;;9.15;7.97;;;;;;;;;;10348716;28;20728;-77
2022/03/21 18:56:07;;;;;;;11.00;8.05;;;;;;;;;;10348521;28;20196;-77
2022/03/21 19:01:08;;;;;;;9.07;8.18;;;;;;;;;;10345146;28;20219;-77
2022/03/21 19:06:11;;;;;;;10.15;8.65;;;;;;;;;;10349297;28;20283;-77
2022/03/21 19:11:12;;;;;;;10.85;9.48;;;;;;;;;;10350788;28;20263;-77
2022/03/21 19:16:13;;;;;;;15.80;10.65;;;;;;;;;;10347312;28;20204;-77
2022/03/21 19:21:14;;;;;;;13.35;10.23;;;;;;;;;;10354773;28;20216;-77
2022/03/21 19:26:15;;;;;;;10.63;9.63;;;;;;;;;;10354019;28;20207;-77
2022/03/21 19:31:17;;;;;;;11.70;10.13;;;;;;;;;;10349126;28;20239;-77
2022/03/21 19:36:18;;;;;;;15.55;10.63;;;;;;;;;;10348285;28;20211;-76
2022/03/21 19:41:19;;;;;;;16.85;10.18;;;;;;;;;;10350951;28;20236;-77
2022/03/21 19:46:22;;;;;;;13.65;9.52;;;;;;;;;;10348597;28;20197;-77
2022/03/21 19:51:25;;;;;;;12.05;10.85;;;;;;;;;;10348260;28;20934;-77
2022/03/21 19:56:26;;;;;;;16.23;10.55;;;;;;;;;;10351769;28;20841;-77
2022/03/21 20:01:30;;;;;;;14.27;10.30;;;;;;;;;;10344960;28;20643;-77
2022/03/21 20:06:31;;;;;;;11.35;9.65;;;;;;;;;;10347599;28;20672;-77
2022/03/21 20:11:32;;;;;;;13.95;10.30;;;;;;;;;;10353058;28;20703;-76
2022/03/21 20:16:33;;;;;;;12.68;10.45;;;;;;;;;;10344883;28;20215;-78
2022/03/21 20:21:34;;;;;;;13.88;10.02;;;;;;;;;;10344010;28;20247;-77
2022/03/21 20:26:35;;;;;;;11.55;10.02;;;;;;;;;;10345407;28;20226;-76
2022/03/21 20:31:36;;;;;;;12.60;10.25;;;;;;;;;;10344582;28;20279;-76
2022/03/21 20:36:38;;;;;;;12.52;9.68;;;;;;;;;;10346486;28;20215;-75
2022/03/21 20:41:39;;;;;;;14.75;10.20;;;;;;;;;;10340815;28;21076;-78
2022/03/21 20:46:40;;;;;;;13.65;10.35;;;;;;;;;;10342899;28;20197;-77
2022/03/21 20:51:42;;;;;;;13.50;10.35;;;;;;;;;;10341799;28;20204;-78
2022/03/21 20:56:43;;;;;;;17.25;10.90;;;;;;;;;;10340802;28;20208;-76
2022/03/21 21:01:45;;;;;;;14.32;10.73;;;;;;;;;;10341960;28;20212;-76
2022/03/21 21:06:46;;;;;;;16.80;10.77;;;;;;;;;;10343234;28;20198;-78
2022/03/21 21:11:49;;;;;;;15.32;11.02;;;;;;;;;;10340967;28;20208;-79
2022/03/21 21:16:50;;;;;;;15.57;11.13;;;;;;;;;;10340158;28;20197;-76
2022/03/21 21:21:52;;;;;;;16.58;11.48;;;;;;;;;;10343588;28;20211;-79
2022/03/21 21:26:54;;;;;;;16.42;11.68;;;;;;;;;;10341082;28;20613;-78
2022/03/21 21:31:55;;;;;;;15.20;11.02;;;;;;;;;;10341870;28;20224;-79
2022/03/21 21:36:56;;;;;;;17.55;10.65;;;;;;;;;;10343354;28;20208;-79
2022/03/21 21:41:57;;;;;;;14.05;10.57;;;;;;;;;;10298549;28;1209059;-78
2022/03/21 21:46:58;;;;;;;16.85;10.30;;;;;;;;;;10344279;28;20284;-78
2022/03/21 21:52:00;;;;;;;17.05;11.25;;;;;;;;;;10342260;28;20213;-78
2022/03/21 21:57:01;;;;;;;15.20;10.35;;;;;;;;;;10343325;28;20200;-78
2022/03/21 22:02:03;;;;;;;15.32;11.07;;;;;;;;;;10342289;28;20374;-79
2022/03/21 22:07:04;;;;;;;16.70;11.32;;;;;;;;;;10344970;28;20216;-78
2022/03/21 22:12:05;;;;;;;20.77;12.05;;;;;;;;;;10342587;28;20208;-78
2022/03/21 22:17:08;;;;;;;20.45;13.07;;;;;;;;;;10342642;28;20205;-78
2022/03/21 22:22:10;;;;;;;18.45;11.60;;;;;;;;;;10342890;28;20193;-78
2022/03/21 22:27:11;;;;;;;22.08;12.40;;;;;;;;;;10345191;28;20684;-78
2022/03/21 22:32:12;;;;;;;18.50;11.82;;;;;;;;;;10346244;28;20237;-78
2022/03/21 22:37:13;;;;;;;16.08;12.32;;;;;;;;;;10341074;28;20213;-79
2022/03/21 22:47:34;;;;;;;19.77;13.00;;;;;;;;;;10343947;28;20262;-77
2022/03/21 22:52:35;;;;;;;16.60;12.15;;;;;;;;;;10348413;28;20841;-77
2022/03/21 22:57:36;;;;;;;19.35;11.98;;;;;;;;;;10345289;28;20204;-77
2022/03/21 23:02:37;;;;;;;20.90;12.80;;;;;;;;;;10347945;28;20573;-79
2022/03/21 23:07:38;;;;;;;22.17;12.82;;;;;;;;;;10383488;28;20207;-77
2022/03/21 23:12:39;;;;;;;22.67;14.00;;;;;;;;;;10349850;28;20221;-79
2022/03/21 23:17:40;;;;;;;19.92;12.85;;;;;;;;;;10347238;28;20689;-79
2022/03/21 23:22:42;;;;;;;17.58;12.18;;;;;;;;;;10349478;28;20684;-79
2022/03/21 23:27:44;;;;;;;19.27;12.38;;;;;;;;;;10345833;28;20223;-78
2022/03/21 23:32:45;;;;;;;21.73;12.75;;;;;;;;;;10377972;28;20229;-79
2022/03/21 23:37:47;;;;;;;20.47;12.30;;;;;;;;;;10345696;28;20204;-78
2022/03/21 23:42:48;;;;;;;18.37;12.40;;;;;;;;;;10344853;28;20730;-78
2022/03/21 23:47:49;;;;;;;17.70;12.20;;;;;;;;;;10344800;28;20203;-78
2022/03/21 23:52:50;;;;;;;20.73;14.07;;;;;;;;;;10343719;28;20247;-78
2022/03/21 23:57:51;;;;;;;19.75;13.63;;;;;;;;;;10340451;28;20215;-77
